sensor_id;sensor_type;location;lat;lon;timestamp;temperature;humidity
8832;DHT22;4452;50.756;4.472;2023-05-20T00:02:05;12.30;99.90
8832;DHT22;4452;50.756;4.472;2023-05-20T00:04:31;12.30;99.90
8832;DHT22;4452;50.756;4.472;2023-05-20T00:06:57;12.40;99.90
8832;DHT22;4452;50.756;4.472;2023-05-20T00:09:22;12.40;99.90
8832;DHT22;4452;50.756;4.472;2023-05-20T00:11:48;12.30;99.90
8832;DHT22;4452;50.756;4.472;2023-05-20T00:14:13;12.20;99.90
8832;DHT22;4452;50.756;4.472;2023-05-20T00:16:40;12.20;99.90
8832;DHT22;4452;50.756;4.472;2023-05-20T00:19:07;12.20;99.90
8832;DHT22;4452;50.756;4.472;2023-05-20T00:21:33;12.20;99.90
8832;DHT22;4452;50.756;4.472;2023-05-20T00:23:59;12.20;99.90
8832;DHT22;4452;50.756;4.472;2023-05-20T00:26:24;12.20;99.90
8832;DHT22;4452;50.756;4.472;2023-05-20T00:28:50;12.20;99.90
8832;DHT22;4452;50.756;4.472;2023-05-20T00:31:16;12.20;99.90
8832;DHT22;4452;50.756;4.472;2023-05-20T00:33:42;12.20;99.90
8832;DHT22;4452;50.756;4.472;2023-05-20T00:36:07;12.20;99.90
8832;DHT22;4452;50.756;4.472;2023-05-20T00:38:33;12.10;99.90
8832;DHT22;4452;50.756;4.472;2023-05-20T00:40:59;12.10;99.90
8832;DHT22;4452;50.756;4.472;2023-05-20T00:43:25;12.00;99.90
8832;DHT22;4452;50.756;4.472;2023-05-20T00:45:52;11.90;99.90
8832;DHT22;4452;50.756;4.472;2023-05-20T00:48:18;11.90;99.90
8832;DHT22;4452;50.756;4.472;2023-05-20T00:50:46;11.90;99.90
8832;DHT22;4452;50.756;4.472;2023-05-20T00:53:12;11.90;99.90
8832;DHT22;4452;50.756;4.472;2023-05-20T00:55:38;11.90;99.90
8832;DHT22;4452;50.756;4.472;2023-05-20T00:58:04;11.80;99.90
8832;DHT22;4452;50.756;4.472;2023-05-20T01:00:30;11.80;99.90
8832;DHT22;4452;50.756;4.472;2023-05-20T01:02:56;11.80;99.90
8832;DHT22;4452;50.756;4.472;2023-05-20T01:05:22;11.70;99.90
8832;DHT22;4452;50.756;4.472;2023-05-20T01:07:48;11.70;99.90
8832;DHT22;4452;50.756;4.472;2023-05-20T01:10:14;11.70;99.90
8832;DHT22;4452;50.756;4.472;2023-05-20T01:12:48;11.60;99.90
8832;DHT22;4452;50.756;4.472;2023-05-20T01:15:16;11.70;99.90
8832;DHT22;4452;50.756;4.472;2023-05-20T01:17:45;11.50;99.90
8832;DHT22;4452;50.756;4.472;2023-05-20T01:20:12;11.50;99.90
8832;DHT22;4452;50.756;4.472;2023-05-20T01:22:48;11.60;99.90
8832;DHT22;4452;50.756;4.472;2023-05-20T01:25:14;11.60;99.90
8832;DHT22;4452;50.756;4.472;2023-05-20T01:27:40;11.60;99.90
8832;DHT22;4452;50.756;4.472;2023-05-20T01:30:07;11.60;99.90
8832;DHT22;4452;50.756;4.472;2023-05-20T01:32:37;11.60;99.90
8832;DHT22;4452;50.756;4.472;2023-05-20T01:35:03;11.50;99.90
8832;DHT22;4452;50.756;4.472;2023-05-20T01:37:30;11.40;99.90
8832;DHT22;4452;50.756;4.472;2023-05-20T01:39:56;11.40;99.90
8832;DHT22;4452;50.756;4.472;2023-05-20T01:42:25;11.40;99.90
8832;DHT22;4452;50.756;4.472;2023-05-20T01:44:51;11.40;99.90
8832;DHT22;4452;50.756;4.472;2023-05-20T01:47:17;11.40;99.90
8832;DHT22;4452;50.756;4.472;2023-05-20T01:49:43;11.40;99.90
8832;DHT22;4452;50.756;4.472;2023-05-20T01:52:11;11.40;99.90
8832;DHT22;4452;50.756;4.472;2023-05-20T01:54:36;11.40;99.90
8832;DHT22;4452;50.756;4.472;2023-05-20T01:57:02;11.40;99.90
8832;DHT22;4452;50.756;4.472;2023-05-20T01:59:28;11.30;99.90
8832;DHT22;4452;50.756;4.472;2023-05-20T02:01:54;11.20;99.90
8832;DHT22;4452;50.756;4.472;2023-05-20T02:04:19;11.30;99.90
8832;DHT22;4452;50.756;4.472;2023-05-20T02:06:47;11.30;99.90
8832;DHT22;4452;50.756;4.472;2023-05-20T02:09:13;11.20;99.90
8832;DHT22;4452;50.756;4.472;2023-05-20T02:11:39;11.20;99.90
8832;DHT22;4452;50.756;4.472;2023-05-20T02:14:05;11.10;99.90
8832;DHT22;4452;50.756;4.472;2023-05-20T02:16:30;11.20;99.90
8832;DHT22;4452;50.756;4.472;2023-05-20T02:18:56;11.10;99.90
8832;DHT22;4452;50.756;4.472;2023-05-20T02:21:23;11.20;99.90
8832;DHT22;4452;50.756;4.472;2023-05-20T02:23:50;11.10;99.90
8832;DHT22;4452;50.756;4.472;2023-05-20T02:26:16;11.10;99.90
8832;DHT22;4452;50.756;4.472;2023-05-20T02:28:41;11.00;99.90
8832;DHT22;4452;50.756;4.472;2023-05-20T02:31:11;11.00;99.90
8832;DHT22;4452;50.756;4.472;2023-05-20T02:33:37;11.00;99.90
8832;DHT22;4452;50.756;4.472;2023-05-20T02:36:03;11.00;99.90
8832;DHT22;4452;50.756;4.472;2023-05-20T02:38:29;11.00;99.90
8832;DHT22;4452;50.756;4.472;2023-05-20T02:40:56;11.00;99.90
8832;DHT22;4452;50.756;4.472;2023-05-20T02:43:24;11.00;99.90
8832;DHT22;4452;50.756;4.472;2023-05-20T02:45:50;11.00;99.90
8832;DHT22;4452;50.756;4.472;2023-05-20T02:48:15;10.90;99.90
8832;DHT22;4452;50.756;4.472;2023-05-20T02:50:41;10.90;99.90
8832;DHT22;4452;50.756;4.472;2023-05-20T02:53:07;10.80;99.90
8832;DHT22;4452;50.756;4.472;2023-05-20T02:55:33;10.80;99.90
8832;DHT22;4452;50.756;4.472;2023-05-20T02:58:00;10.70;99.90
8832;DHT22;4452;50.756;4.472;2023-05-20T03:00:26;10.70;99.90
8832;DHT22;4452;50.756;4.472;2023-05-20T03:02:54;10.60;99.90
8832;DHT22;4452;50.756;4.472;2023-05-20T03:05:20;10.60;99.90
8832;DHT22;4452;50.756;4.472;2023-05-20T03:07:47;10.60;99.90
8832;DHT22;4452;50.756;4.472;2023-05-20T03:10:13;10.50;99.90
8832;DHT22;4452;50.756;4.472;2023-05-20T03:12:39;10.40;99.90
8832;DHT22;4452;50.756;4.472;2023-05-20T03:15:05;10.50;99.90
8832;DHT22;4452;50.756;4.472;2023-05-20T03:17:31;10.40;99.90
8832;DHT22;4452;50.756;4.472;2023-05-20T03:19:57;10.40;99.90
8832;DHT22;4452;50.756;4.472;2023-05-20T03:22:22;10.30;99.90
8832;DHT22;4452;50.756;4.472;2023-05-20T03:24:48;10.30;99.90
8832;DHT22;4452;50.756;4.472;2023-05-20T03:27:14;10.20;99.90
8832;DHT22;4452;50.756;4.472;2023-05-20T03:29:39;10.20;99.90
8832;DHT22;4452;50.756;4.472;2023-05-20T03:32:05;10.10;99.90
8832;DHT22;4452;50.756;4.472;2023-05-20T03:34:31;10.20;99.90
8832;DHT22;4452;50.756;4.472;2023-05-20T03:36:57;10.10;99.90
8832;DHT22;4452;50.756;4.472;2023-05-20T03:39:24;10.10;99.90
8832;DHT22;4452;50.756;4.472;2023-05-20T03:41:50;10.10;99.90
8832;DHT22;4452;50.756;4.472;2023-05-20T03:44:16;10.10;99.90
8832;DHT22;4452;50.756;4.472;2023-05-20T03:46:41;10.10;99.90
8832;DHT22;4452;50.756;4.472;2023-05-20T03:49:07;10.00;99.90
8832;DHT22;4452;50.756;4.472;2023-05-20T03:51:33;10.10;99.90
8832;DHT22;4452;50.756;4.472;2023-05-20T03:53:58;10.00;99.90
8832;DHT22;4452;50.756;4.472;2023-05-20T03:56:24;10.10;99.90
8832;DHT22;4452;50.756;4.472;2023-05-20T03:58:51;10.00;99.90
8832;DHT22;4452;50.756;4.472;2023-05-20T04:01:16;10.00;99.90
8832;DHT22;4452;50.756;4.472;2023-05-20T04:03:42;10.00;99.90
8832;DHT22;4452;50.756;4.472;2023-05-20T04:06:08;10.00;99.90
8832;DHT22;4452;50.756;4.472;2023-05-20T04:08:34;9.90;99.90
8832;DHT22;4452;50.756;4.472;2023-05-20T04:11:01;10.00;99.90
8832;DHT22;4452;50.756;4.472;2023-05-20T04:13:27;10.00;99.90
8832;DHT22;4452;50.756;4.472;2023-05-20T04:15:53;10.00;99.90
8832;DHT22;4452;50.756;4.472;2023-05-20T04:18:19;10.10;99.90
8832;DHT22;4452;50.756;4.472;2023-05-20T04:20:45;10.10;99.90
8832;DHT22;4452;50.756;4.472;2023-05-20T04:23:11;10.20;99.90
8832;DHT22;4452;50.756;4.472;2023-05-20T04:25:37;10.30;99.90
8832;DHT22;4452;50.756;4.472;2023-05-20T04:28:03;10.30;99.90
8832;DHT22;4452;50.756;4.472;2023-05-20T04:30:29;10.30;99.90
8832;DHT22;4452;50.756;4.472;2023-05-20T04:32:58;10.40;99.90
8832;DHT22;4452;50.756;4.472;2023-05-20T04:35:23;10.40;99.90
8832;DHT22;4452;50.756;4.472;2023-05-20T04:37:50;10.50;99.90
8832;DHT22;4452;50.756;4.472;2023-05-20T04:40:18;10.50;99.90
8832;DHT22;4452;50.756;4.472;2023-05-20T04:42:45;10.50;99.90
8832;DHT22;4452;50.756;4.472;2023-05-20T04:45:11;10.60;99.90
8832;DHT22;4452;50.756;4.472;2023-05-20T04:47:38;10.60;99.90
8832;DHT22;4452;50.756;4.472;2023-05-20T04:50:06;10.60;99.90
8832;DHT22;4452;50.756;4.472;2023-05-20T04:52:33;10.70;99.90
8832;DHT22;4452;50.756;4.472;2023-05-20T04:54:58;10.70;99.90
8832;DHT22;4452;50.756;4.472;2023-05-20T04:57:26;10.80;99.90
8832;DHT22;4452;50.756;4.472;2023-05-20T04:59:52;10.80;99.90
8832;DHT22;4452;50.756;4.472;2023-05-20T05:02:17;10.80;99.90
8832;DHT22;4452;50.756;4.472;2023-05-20T05:04:43;10.90;99.90
8832;DHT22;4452;50.756;4.472;2023-05-20T05:07:09;11.00;99.90
8832;DHT22;4452;50.756;4.472;2023-05-20T05:09:35;11.10;99.90
8832;DHT22;4452;50.756;4.472;2023-05-20T05:12:01;11.10;99.90
8832;DHT22;4452;50.756;4.472;2023-05-20T05:14:27;11.20;99.90
8832;DHT22;4452;50.756;4.472;2023-05-20T05:16:52;11.30;99.90
8832;DHT22;4452;50.756;4.472;2023-05-20T05:19:18;11.30;99.90
8832;DHT22;4452;50.756;4.472;2023-05-20T05:21:44;11.40;99.90
8832;DHT22;4452;50.756;4.472;2023-05-20T05:24:10;11.50;99.90
8832;DHT22;4452;50.756;4.472;2023-05-20T05:26:36;11.50;99.90
8832;DHT22;4452;50.756;4.472;2023-05-20T05:29:01;11.60;99.90
8832;DHT22;4452;50.756;4.472;2023-05-20T05:31:27;11.60;99.90
8832;DHT22;4452;50.756;4.472;2023-05-20T05:33:53;11.80;99.90
8832;DHT22;4452;50.756;4.472;2023-05-20T05:36:18;11.80;99.90
8832;DHT22;4452;50.756;4.472;2023-05-20T05:38:44;11.90;99.90
8832;DHT22;4452;50.756;4.472;2023-05-20T05:41:10;12.00;99.90
8832;DHT22;4452;50.756;4.472;2023-05-20T05:43:36;12.00;99.90
8832;DHT22;4452;50.756;4.472;2023-05-20T05:46:04;12.10;99.90
8832;DHT22;4452;50.756;4.472;2023-05-20T05:48:31;12.10;99.90
8832;DHT22;4452;50.756;4.472;2023-05-20T05:50:56;12.20;99.90
8832;DHT22;4452;50.756;4.472;2023-05-20T05:53:22;12.20;99.90
8832;DHT22;4452;50.756;4.472;2023-05-20T05:55:48;12.30;99.90
8832;DHT22;4452;50.756;4.472;2023-05-20T05:58:14;12.30;99.90
8832;DHT22;4452;50.756;4.472;2023-05-20T06:00:40;12.30;99.90
8832;DHT22;4452;50.756;4.472;2023-05-20T06:03:05;12.30;99.90
8832;DHT22;4452;50.756;4.472;2023-05-20T06:05:31;12.40;99.90
8832;DHT22;4452;50.756;4.472;2023-05-20T06:07:57;12.50;99.90
8832;DHT22;4452;50.756;4.472;2023-05-20T06:10:23;12.60;99.90
8832;DHT22;4452;50.756;4.472;2023-05-20T06:12:48;12.80;99.90
8832;DHT22;4452;50.756;4.472;2023-05-20T06:15:14;12.90;99.90
8832;DHT22;4452;50.756;4.472;2023-05-20T06:17:41;12.80;99.90
8832;DHT22;4452;50.756;4.472;2023-05-20T06:20:07;12.90;99.90
8832;DHT22;4452;50.756;4.472;2023-05-20T06:22:33;13.00;99.90
8832;DHT22;4452;50.756;4.472;2023-05-20T06:24:59;13.10;99.90
8832;DHT22;4452;50.756;4.472;2023-05-20T06:27:27;13.30;99.90
8832;DHT22;4452;50.756;4.472;2023-05-20T06:29:53;13.40;99.90
8832;DHT22;4452;50.756;4.472;2023-05-20T06:32:18;13.40;99.90
8832;DHT22;4452;50.756;4.472;2023-05-20T06:34:44;13.30;99.90
8832;DHT22;4452;50.756;4.472;2023-05-20T06:37:10;13.40;99.90
8832;DHT22;4452;50.756;4.472;2023-05-20T06:39:38;13.60;99.90
8832;DHT22;4452;50.756;4.472;2023-05-20T06:42:09;13.60;99.90
8832;DHT22;4452;50.756;4.472;2023-05-20T06:44:38;13.70;99.90
8832;DHT22;4452;50.756;4.472;2023-05-20T06:47:06;13.80;99.90
8832;DHT22;4452;50.756;4.472;2023-05-20T06:49:35;13.70;99.90
8832;DHT22;4452;50.756;4.472;2023-05-20T06:52:02;13.70;99.90
8832;DHT22;4452;50.756;4.472;2023-05-20T06:54:29;14.00;99.90
8832;DHT22;4452;50.756;4.472;2023-05-20T06:56:55;14.10;99.90
8832;DHT22;4452;50.756;4.472;2023-05-20T06:59:21;14.40;99.90
8832;DHT22;4452;50.756;4.472;2023-05-20T07:01:46;14.50;99.90
8832;DHT22;4452;50.756;4.472;2023-05-20T07:04:12;14.40;99.90
8832;DHT22;4452;50.756;4.472;2023-05-20T07:06:39;14.70;99.90
8832;DHT22;4452;50.756;4.472;2023-05-20T07:09:04;15.00;99.90
8832;DHT22;4452;50.756;4.472;2023-05-20T07:11:30;14.50;99.90
8832;DHT22;4452;50.756;4.472;2023-05-20T07:13:56;14.40;99.90
8832;DHT22;4452;50.756;4.472;2023-05-20T07:16:21;14.70;99.90
8832;DHT22;4452;50.756;4.472;2023-05-20T07:18:47;14.70;99.90
8832;DHT22;4452;50.756;4.472;2023-05-20T07:21:13;14.80;99.90
8832;DHT22;4452;50.756;4.472;2023-05-20T07:23:38;14.90;99.90
8832;DHT22;4452;50.756;4.472;2023-05-20T07:26:04;14.90;99.90
8832;DHT22;4452;50.756;4.472;2023-05-20T07:28:30;15.00;99.90
8832;DHT22;4452;50.756;4.472;2023-05-20T07:30:55;15.10;99.90
8832;DHT22;4452;50.756;4.472;2023-05-20T07:33:22;15.20;99.90
8832;DHT22;4452;50.756;4.472;2023-05-20T07:35:48;15.30;99.90
8832;DHT22;4452;50.756;4.472;2023-05-20T07:38:13;15.60;99.90
8832;DHT22;4452;50.756;4.472;2023-05-20T07:40:39;15.60;99.90
8832;DHT22;4452;50.756;4.472;2023-05-20T07:43:07;15.70;99.90
8832;DHT22;4452;50.756;4.472;2023-05-20T07:45:36;15.70;99.90
8832;DHT22;4452;50.756;4.472;2023-05-20T07:48:02;15.70;99.90
8832;DHT22;4452;50.756;4.472;2023-05-20T07:50:28;15.80;99.90
8832;DHT22;4452;50.756;4.472;2023-05-20T07:52:54;15.90;99.90
8832;DHT22;4452;50.756;4.472;2023-05-20T07:55:20;15.80;99.90
8832;DHT22;4452;50.756;4.472;2023-05-20T07:57:45;16.00;99.90
8832;DHT22;4452;50.756;4.472;2023-05-20T08:00:11;16.10;99.90
8832;DHT22;4452;50.756;4.472;2023-05-20T08:02:38;15.90;99.90
8832;DHT22;4452;50.756;4.472;2023-05-20T08:05:04;16.00;99.90
8832;DHT22;4452;50.756;4.472;2023-05-20T08:07:30;16.20;99.90
8832;DHT22;4452;50.756;4.472;2023-05-20T08:09:56;16.00;99.90
8832;DHT22;4452;50.756;4.472;2023-05-20T08:12:22;16.40;99.90
8832;DHT22;4452;50.756;4.472;2023-05-20T08:14:47;16.50;99.90
8832;DHT22;4452;50.756;4.472;2023-05-20T08:17:13;16.40;99.90
8832;DHT22;4452;50.756;4.472;2023-05-20T08:19:39;16.50;99.90
8832;DHT22;4452;50.756;4.472;2023-05-20T08:22:05;16.70;99.90
8832;DHT22;4452;50.756;4.472;2023-05-20T08:24:32;16.90;99.90
8832;DHT22;4452;50.756;4.472;2023-05-20T08:26:58;17.20;99.90
8832;DHT22;4452;50.756;4.472;2023-05-20T08:29:23;17.00;99.90
8832;DHT22;4452;50.756;4.472;2023-05-20T08:31:49;17.10;99.90
8832;DHT22;4452;50.756;4.472;2023-05-20T08:34:16;17.00;99.90
8832;DHT22;4452;50.756;4.472;2023-05-20T08:36:42;17.10;99.90
8832;DHT22;4452;50.756;4.472;2023-05-20T08:39:09;17.30;99.90
8832;DHT22;4452;50.756;4.472;2023-05-20T08:41:37;17.20;99.90
8832;DHT22;4452;50.756;4.472;2023-05-20T08:44:04;17.10;99.90
8832;DHT22;4452;50.756;4.472;2023-05-20T08:46:31;17.10;99.90
8832;DHT22;4452;50.756;4.472;2023-05-20T08:48:57;17.20;99.90
8832;DHT22;4452;50.756;4.472;2023-05-20T08:51:26;17.30;99.90
8832;DHT22;4452;50.756;4.472;2023-05-20T08:53:51;17.50;99.90
8832;DHT22;4452;50.756;4.472;2023-05-20T08:56:18;17.50;99.90
8832;DHT22;4452;50.756;4.472;2023-05-20T08:58:44;17.80;99.90
8832;DHT22;4452;50.756;4.472;2023-05-20T09:01:11;17.80;99.90
8832;DHT22;4452;50.756;4.472;2023-05-20T09:03:37;17.60;99.90
8832;DHT22;4452;50.756;4.472;2023-05-20T09:06:06;17.70;99.90
8832;DHT22;4452;50.756;4.472;2023-05-20T09:08:33;17.50;99.90
8832;DHT22;4452;50.756;4.472;2023-05-20T09:10:59;17.80;99.90
8832;DHT22;4452;50.756;4.472;2023-05-20T09:13:26;17.90;99.90
8832;DHT22;4452;50.756;4.472;2023-05-20T09:15:52;18.20;99.90
8832;DHT22;4452;50.756;4.472;2023-05-20T09:18:18;18.10;99.90
8832;DHT22;4452;50.756;4.472;2023-05-20T09:20:49;17.70;99.90
8832;DHT22;4452;50.756;4.472;2023-05-20T09:23:18;17.70;99.90
8832;DHT22;4452;50.756;4.472;2023-05-20T09:25:47;17.90;99.90
8832;DHT22;4452;50.756;4.472;2023-05-20T09:28:13;17.80;99.90
8832;DHT22;4452;50.756;4.472;2023-05-20T09:30:39;17.90;99.90
8832;DHT22;4452;50.756;4.472;2023-05-20T09:33:05;18.00;99.90
8832;DHT22;4452;50.756;4.472;2023-05-20T09:35:35;18.10;99.90
8832;DHT22;4452;50.756;4.472;2023-05-20T09:38:05;17.80;99.90
8832;DHT22;4452;50.756;4.472;2023-05-20T09:40:34;17.90;99.90
8832;DHT22;4452;50.756;4.472;2023-05-20T09:43:03;18.00;99.90
8832;DHT22;4452;50.756;4.472;2023-05-20T09:45:29;18.20;99.90
8832;DHT22;4452;50.756;4.472;2023-05-20T09:47:55;18.20;99.90
8832;DHT22;4452;50.756;4.472;2023-05-20T09:50:23;18.30;99.90
8832;DHT22;4452;50.756;4.472;2023-05-20T09:52:50;18.40;99.90
8832;DHT22;4452;50.756;4.472;2023-05-20T09:55:22;18.70;99.90
8832;DHT22;4452;50.756;4.472;2023-05-20T09:57:48;18.20;99.90
8832;DHT22;4452;50.756;4.472;2023-05-20T10:00:15;18.40;99.90
8832;DHT22;4452;50.756;4.472;2023-05-20T10:02:48;18.10;99.90
8832;DHT22;4452;50.756;4.472;2023-05-20T10:05:28;18.10;99.90
8832;DHT22;4452;50.756;4.472;2023-05-20T10:15:58;18.40;99.90
8832;DHT22;4452;50.756;4.472;2023-05-20T10:21:16;18.60;99.90
8832;DHT22;4452;50.756;4.472;2023-05-20T10:23:43;18.50;99.90
8832;DHT22;4452;50.756;4.472;2023-05-20T10:26:09;18.40;99.90
8832;DHT22;4452;50.756;4.472;2023-05-20T10:28:36;18.60;99.90
8832;DHT22;4452;50.756;4.472;2023-05-20T10:31:13;19.00;99.90
8832;DHT22;4452;50.756;4.472;2023-05-20T10:33:44;19.20;99.90
8832;DHT22;4452;50.756;4.472;2023-05-20T10:36:21;19.00;99.90
8832;DHT22;4452;50.756;4.472;2023-05-20T10:38:54;19.30;99.90
8832;DHT22;4452;50.756;4.472;2023-05-20T10:41:24;19.40;99.90
8832;DHT22;4452;50.756;4.472;2023-05-20T10:44:04;19.30;99.90
8832;DHT22;4452;50.756;4.472;2023-05-20T10:46:31;19.40;99.90
8832;DHT22;4452;50.756;4.472;2023-05-20T10:48:58;19.40;99.90
8832;DHT22;4452;50.756;4.472;2023-05-20T10:51:24;19.20;99.90
8832;DHT22;4452;50.756;4.472;2023-05-20T10:53:54;19.20;99.90
8832;DHT22;4452;50.756;4.472;2023-05-20T10:56:23;19.30;99.90
8832;DHT22;4452;50.756;4.472;2023-05-20T10:58:53;19.30;99.90
8832;DHT22;4452;50.756;4.472;2023-05-20T11:01:24;19.80;99.90
8832;DHT22;4452;50.756;4.472;2023-05-20T11:03:50;20.30;99.90
8832;DHT22;4452;50.756;4.472;2023-05-20T11:06:17;20.60;99.90
8832;DHT22;4452;50.756;4.472;2023-05-20T11:08:44;20.40;99.90
8832;DHT22;4452;50.756;4.472;2023-05-20T11:11:11;20.30;99.90
8832;DHT22;4452;50.756;4.472;2023-05-20T11:13:37;19.90;99.90
8832;DHT22;4452;50.756;4.472;2023-05-20T11:16:04;19.90;99.90
8832;DHT22;4452;50.756;4.472;2023-05-20T11:18:30;20.00;99.90
8832;DHT22;4452;50.756;4.472;2023-05-20T11:21:00;19.90;99.90
8832;DHT22;4452;50.756;4.472;2023-05-20T11:23:27;20.00;99.90
8832;DHT22;4452;50.756;4.472;2023-05-20T11:25:54;20.30;99.90
8832;DHT22;4452;50.756;4.472;2023-05-20T11:28:21;20.50;99.90
8832;DHT22;4452;50.756;4.472;2023-05-20T11:30:47;19.90;99.90
8832;DHT22;4452;50.756;4.472;2023-05-20T11:33:15;19.60;99.90
8832;DHT22;4452;50.756;4.472;2023-05-20T11:35:48;20.00;99.90
8832;DHT22;4452;50.756;4.472;2023-05-20T11:38:14;19.90;99.90
8832;DHT22;4452;50.756;4.472;2023-05-20T11:40:45;20.20;99.90
8832;DHT22;4452;50.756;4.472;2023-05-20T11:43:12;19.80;99.90
8832;DHT22;4452;50.756;4.472;2023-05-20T11:45:42;19.60;99.90
8832;DHT22;4452;50.756;4.472;2023-05-20T11:48:09;19.40;99.90
8832;DHT22;4452;50.756;4.472;2023-05-20T11:50:43;19.30;99.90
8832;DHT22;4452;50.756;4.472;2023-05-20T11:53:13;19.40;99.90
8832;DHT22;4452;50.756;4.472;2023-05-20T11:55:51;19.70;99.90
8832;DHT22;4452;50.756;4.472;2023-05-20T11:58:22;20.20;99.90
8832;DHT22;4452;50.756;4.472;2023-05-20T12:00:48;20.70;99.90
8832;DHT22;4452;50.756;4.472;2023-05-20T12:03:14;20.50;99.90
8832;DHT22;4452;50.756;4.472;2023-05-20T12:05:40;20.40;99.90
8832;DHT22;4452;50.756;4.472;2023-05-20T12:08:06;20.70;99.90
8832;DHT22;4452;50.756;4.472;2023-05-20T12:10:32;20.60;99.90
8832;DHT22;4452;50.756;4.472;2023-05-20T12:12:59;20.70;99.90
8832;DHT22;4452;50.756;4.472;2023-05-20T12:15:25;20.50;99.90
8832;DHT22;4452;50.756;4.472;2023-05-20T12:17:52;20.20;99.90
8832;DHT22;4452;50.756;4.472;2023-05-20T12:20:23;20.20;99.90
8832;DHT22;4452;50.756;4.472;2023-05-20T12:22:49;20.10;99.90
8832;DHT22;4452;50.756;4.472;2023-05-20T12:25:16;20.40;99.90
8832;DHT22;4452;50.756;4.472;2023-05-20T12:27:44;21.00;99.90
8832;DHT22;4452;50.756;4.472;2023-05-20T12:30:17;21.20;99.90
8832;DHT22;4452;50.756;4.472;2023-05-20T12:32:44;21.20;99.90
8832;DHT22;4452;50.756;4.472;2023-05-20T12:35:10;21.40;99.90
8832;DHT22;4452;50.756;4.472;2023-05-20T12:37:40;22.20;99.90
8832;DHT22;4452;50.756;4.472;2023-05-20T12:40:08;22.50;99.90
8832;DHT22;4452;50.756;4.472;2023-05-20T12:42:40;22.90;99.90
8832;DHT22;4452;50.756;4.472;2023-05-20T12:45:07;22.40;99.90
8832;DHT22;4452;50.756;4.472;2023-05-20T12:47:37;22.80;99.90
8832;DHT22;4452;50.756;4.472;2023-05-20T12:50:03;22.60;99.90
8832;DHT22;4452;50.756;4.472;2023-05-20T12:52:28;23.00;99.90
8832;DHT22;4452;50.756;4.472;2023-05-20T12:54:55;21.80;99.90
8832;DHT22;4452;50.756;4.472;2023-05-20T12:57:21;21.60;99.90
8832;DHT22;4452;50.756;4.472;2023-05-20T12:59:47;21.40;99.90
8832;DHT22;4452;50.756;4.472;2023-05-20T13:02:13;21.70;99.90
8832;DHT22;4452;50.756;4.472;2023-05-20T13:04:38;21.70;99.90
8832;DHT22;4452;50.756;4.472;2023-05-20T13:07:04;22.10;99.90
8832;DHT22;4452;50.756;4.472;2023-05-20T13:09:30;22.30;99.90
8832;DHT22;4452;50.756;4.472;2023-05-20T13:11:57;22.20;99.90
8832;DHT22;4452;50.756;4.472;2023-05-20T13:14:22;21.90;99.90
8832;DHT22;4452;50.756;4.472;2023-05-20T13:16:49;21.80;99.90
8832;DHT22;4452;50.756;4.472;2023-05-20T13:19:19;21.70;99.90
8832;DHT22;4452;50.756;4.472;2023-05-20T13:21:44;21.40;99.90
8832;DHT22;4452;50.756;4.472;2023-05-20T13:24:10;21.40;99.90
8832;DHT22;4452;50.756;4.472;2023-05-20T13:26:36;21.60;99.90
8832;DHT22;4452;50.756;4.472;2023-05-20T13:29:01;21.30;99.90
8832;DHT22;4452;50.756;4.472;2023-05-20T13:31:27;21.00;99.90
8832;DHT22;4452;50.756;4.472;2023-05-20T13:33:52;21.30;99.90
8832;DHT22;4452;50.756;4.472;2023-05-20T13:36:20;21.40;99.90
8832;DHT22;4452;50.756;4.472;2023-05-20T13:38:45;21.30;99.90
8832;DHT22;4452;50.756;4.472;2023-05-20T13:41:11;21.10;99.90
8832;DHT22;4452;50.756;4.472;2023-05-20T13:43:37;21.30;99.90
8832;DHT22;4452;50.756;4.472;2023-05-20T13:46:03;21.20;99.90
8832;DHT22;4452;50.756;4.472;2023-05-20T13:48:29;20.80;99.90
8832;DHT22;4452;50.756;4.472;2023-05-20T13:50:55;21.20;99.90
8832;DHT22;4452;50.756;4.472;2023-05-20T13:53:20;21.20;99.90
8832;DHT22;4452;50.756;4.472;2023-05-20T13:55:46;21.30;99.90
8832;DHT22;4452;50.756;4.472;2023-05-20T13:58:12;20.70;99.90
8832;DHT22;4452;50.756;4.472;2023-05-20T14:00:38;20.80;99.90
8832;DHT22;4452;50.756;4.472;2023-05-20T14:03:03;20.60;99.90
8832;DHT22;4452;50.756;4.472;2023-05-20T14:05:30;20.60;99.90
8832;DHT22;4452;50.756;4.472;2023-05-20T14:07:57;20.70;99.90
8832;DHT22;4452;50.756;4.472;2023-05-20T14:10:23;20.60;99.90
8832;DHT22;4452;50.756;4.472;2023-05-20T14:12:48;20.40;99.90
8832;DHT22;4452;50.756;4.472;2023-05-20T14:15:14;20.50;99.90
8832;DHT22;4452;50.756;4.472;2023-05-20T14:17:40;20.60;99.90
8832;DHT22;4452;50.756;4.472;2023-05-20T14:20:08;20.70;99.90
8832;DHT22;4452;50.756;4.472;2023-05-20T14:22:34;20.60;99.90
8832;DHT22;4452;50.756;4.472;2023-05-20T14:24:59;20.70;99.90
8832;DHT22;4452;50.756;4.472;2023-05-20T14:27:25;20.80;99.90
8832;DHT22;4452;50.756;4.472;2023-05-20T14:29:51;20.90;99.90
8832;DHT22;4452;50.756;4.472;2023-05-20T14:32:16;20.40;99.90
8832;DHT22;4452;50.756;4.472;2023-05-20T14:34:42;20.30;99.90
8832;DHT22;4452;50.756;4.472;2023-05-20T14:37:08;20.10;99.90
8832;DHT22;4452;50.756;4.472;2023-05-20T14:39:35;20.20;99.90
8832;DHT22;4452;50.756;4.472;2023-05-20T14:42:01;20.30;99.90
8832;DHT22;4452;50.756;4.472;2023-05-20T14:44:28;20.30;99.90
8832;DHT22;4452;50.756;4.472;2023-05-20T14:46:53;20.40;99.90
8832;DHT22;4452;50.756;4.472;2023-05-20T14:49:19;20.90;99.90
8832;DHT22;4452;50.756;4.472;2023-05-20T14:51:45;20.90;99.90
8832;DHT22;4452;50.756;4.472;2023-05-20T14:54:10;21.00;99.90
8832;DHT22;4452;50.756;4.472;2023-05-20T14:56:36;21.50;99.90
8832;DHT22;4452;50.756;4.472;2023-05-20T14:59:02;21.60;99.90
8832;DHT22;4452;50.756;4.472;2023-05-20T15:01:28;21.10;99.90
8832;DHT22;4452;50.756;4.472;2023-05-20T15:03:53;20.90;99.90
8832;DHT22;4452;50.756;4.472;2023-05-20T15:06:19;20.70;99.90
8832;DHT22;4452;50.756;4.472;2023-05-20T15:08:45;20.60;99.90
8832;DHT22;4452;50.756;4.472;2023-05-20T15:11:11;20.70;99.90
8832;DHT22;4452;50.756;4.472;2023-05-20T15:13:36;20.90;99.90
8832;DHT22;4452;50.756;4.472;2023-05-20T15:16:02;21.00;99.90
8832;DHT22;4452;50.756;4.472;2023-05-20T15:18:28;21.90;99.90
8832;DHT22;4452;50.756;4.472;2023-05-20T15:20:54;21.70;99.90
8832;DHT22;4452;50.756;4.472;2023-05-20T15:23:19;21.60;99.90
8832;DHT22;4452;50.756;4.472;2023-05-20T15:25:45;21.70;99.90
8832;DHT22;4452;50.756;4.472;2023-05-20T15:28:12;21.20;99.90
8832;DHT22;4452;50.756;4.472;2023-05-20T15:30:38;20.90;99.90
8832;DHT22;4452;50.756;4.472;2023-05-20T15:33:04;20.90;99.90
8832;DHT22;4452;50.756;4.472;2023-05-20T15:35:29;21.00;99.90
8832;DHT22;4452;50.756;4.472;2023-05-20T15:37:55;21.00;99.90
8832;DHT22;4452;50.756;4.472;2023-05-20T15:40:21;21.10;99.90
8832;DHT22;4452;50.756;4.472;2023-05-20T15:42:46;21.00;99.90
8832;DHT22;4452;50.756;4.472;2023-05-20T15:45:12;21.00;99.90
8832;DHT22;4452;50.756;4.472;2023-05-20T15:47:38;21.20;99.90
8832;DHT22;4452;50.756;4.472;2023-05-20T15:50:04;20.70;99.90
8832;DHT22;4452;50.756;4.472;2023-05-20T15:52:32;21.30;99.90
8832;DHT22;4452;50.756;4.472;2023-05-20T15:54:58;22.40;99.90
8832;DHT22;4452;50.756;4.472;2023-05-20T15:57:24;23.60;99.90
8832;DHT22;4452;50.756;4.472;2023-05-20T15:59:49;23.40;99.90
8832;DHT22;4452;50.756;4.472;2023-05-20T16:02:15;24.10;99.90
8832;DHT22;4452;50.756;4.472;2023-05-20T16:04:41;22.80;99.90
8832;DHT22;4452;50.756;4.472;2023-05-20T16:07:06;21.90;99.90
8832;DHT22;4452;50.756;4.472;2023-05-20T16:09:32;21.00;99.90